Lester Prairie, MN (55354)

4:01 PM CST on February 14, 2016 (GMT -0600)
Lester Prairie | | Change Station
CLOSE
Current Station
Personal Weather Station
Location: Lester Prairie, MN
Elevation: 978 ft
Nearby Weather Stations

Elev 978 ft 44.89 °N, 94.05 °W | Updated 12 minutes ago

Snow
Snow
19.4 °F
Feels Like 13 °F
N
4.3
Wind Variable Wind from SW

Today
High -- | Low -- °F
--% Chance of Precip.
Yesterday
High -- | Low -- °F
Precip. -- in
Pressure 29.89 in
Visibility 1.2 miles
Clouds Overcast 1100 ft
Windchill 13 °F
Dew Point 16 °F
Humidity 85%
Rainfall 0.00 in
Snow Depth Not available.
7:18 AM 5:42 PM
Waxing Crescent, 45% visible
METAR KGYL 142155Z AUTO 15007KT 1 1/4SM -SN OVC011 M07/M08 A2989 RMK AO2 T10671084
Pressure 29.89 in
Visibility 1.2 miles
Clouds Overcast 1100 ft
Windchill 13 °F
Dew Point 16 °F
Humidity 85%
Rainfall 0.00 in
Snow Depth Not available.
7:18 AM 5:42 PM
Waxing Crescent, 45% visible
METAR KGYL 142155Z AUTO 15007KT 1 1/4SM -SN OVC011 M07/M08 A2989 RMK AO2 T10671084

10-Day Weather Forecast

Almanac

Astronomy

Feb. 14, 2016 Rise Set
Actual Time
Civil Twilight
Nautical Twilight
Astronomical Twilight
Moon
Length of Visible Light
Length of Day
Tomorrow will be .
, % of the Moon is Illuminated

Today's Extremes

State Highs State Lows

Community

WunderPhotos

Upload Photos

1,892,890 photos uploaded!

WunderBlog® & News

Nearby

Air Quality

  Air Quality AQ Index Pollutant
Not available.

Snow Depth

Station Depth Elevation

Earthquake Activity

City Distance Mag. Time & Date
Minimum magnitude displayed is 2.5.

Coastal Water Temperatures

Place Temperature

Stations

Nearby Weather Stations

Station Location Temp. Windchill Dew Point Humidity Wind Precip. Elev Updated Type
                   

Watches & Warnings

There are currently no watches in effect.